UTDT

Qurghonteppa International Airport

Kurgan-Tyube, Tajikistan
TAF UTDT 160400Z 1605/1613 VRB02MPS 3100 BR SCT015 BKN060CB OVC100 TEMPO 1605/1613 19005MPS PROB40 TEMPO 1605/1613 2100 -SHRA BR
Issued Valid From Valid To
Dec-16 @ 04:00 UTC
(2 hours ago)
Dec-16 @ 05:00 UTC
(53 minutes ago)
Dec-16 @ 13:00 UTC
(in 7 hours)
Dec-16 @ 05:00 to Dec-16 @ 13:00
TAF UTDT 160400Z 1605/1613 VRB02MPS 3100 BR SCT015 BKN060CB OVC100
Wind Visibility Clouds Conditions
Variable at 4 knots 3,106 meters
  • Scattered at 1,500' AGL
  • Broken at 6,000' AGL
  • Overcast at 10,000' AGL
  • Mist
Temporary Dec-16 @ 05:00 to Dec-16 @ 13:00
TEMPO 1605/1613 19005MPS
Wind
190° at 10 knots
Temporary  (Probability 40%) Dec-16 @ 05:00 to Dec-16 @ 13:00
PROB40 TEMPO 1605/1613 2100 -SHRA BR
Visibility Conditions
2,092 meters
  • Light Rain
  • Mist
TAF UTDT 160400Z 1605/1613 VRB02MPS 3100 BR SCT015 BKN060CB OVC100 TEMPO 1605/1613 19005MPS PROB40 TEMPO 1605/1613 2100 -SHRA BR
Issued Dec-16 @ 04:00 UTC
(2 hours ago)
Valid From Dec-16 @ 05:00 UTC
(53 minutes ago)
Valid To Dec-16 @ 13:00 UTC
(in 7 hours)
Dec-16 @ 05:00 - Dec-16 @ 13:00
Wind Visibility
Variable at 4 knots 3,106 meters
Clouds
  • Scattered at 1,500' AGL
  • Broken at 6,000' AGL
  • Overcast at 10,000' AGL
Conditions
  • Mist
Temporary Dec-16 @ 05:00 - Dec-16 @ 13:00
Wind
190° at 10 knots
Probability 40% Temporary Dec-16 @ 05:00 - Dec-16 @ 13:00
Conditions
  • Light Rain
  • Mist